Time;durP1;ratioP1;P1;durP2;ratioP2;P2;SDS_P1;SDS_P2;PMS_P1;PMS_P2;Temp;Humidity;BMP_temperature;BMP_pressure;BME280_temperature;BME280_humidity;BME280_pressure;Samples;Min_cycle;Max_cycle;Signal;HPM_P1;HPM_P2
2022/06/11 00:00:13;;;;;;;9.30;2.25;;;22.90;61.10;;;;;;5062394;28;20475;-58
2022/06/11 00:02:40;;;;;;;10.30;2.63;;;22.80;61.00;;;;;;5061824;28;20031;-58
2022/06/11 00:05:07;;;;;;;12.70;2.72;;;22.80;61.10;;;;;;5060711;28;20037;-58
2022/06/11 00:07:33;;;;;;;10.25;2.47;;;22.80;61.10;;;;;;5078396;28;20028;-58
2022/06/11 00:09:59;;;;;;;16.20;2.63;;;22.80;61.10;;;;;;5074213;28;20039;-58
2022/06/11 00:12:26;;;;;;;10.70;2.10;;;22.80;61.20;;;;;;5060982;28;20021;-58
2022/06/11 00:14:54;;;;;;;9.70;2.40;;;22.80;61.20;;;;;;5044739;28;20028;-58
2022/06/11 00:17:22;;;;;;;9.40;2.17;;;22.80;61.30;;;;;;5060811;28;20100;-58
2022/06/11 00:19:50;;;;;;;9.68;2.80;;;22.80;61.30;;;;;;5059390;28;20025;-58
2022/06/11 00:22:16;;;;;;;9.18;2.40;;;22.80;62.30;;;;;;5060696;28;20089;-58
2022/06/11 00:24:42;;;;;;;7.97;2.00;;;22.80;61.30;;;;;;5061052;28;20025;-58
2022/06/11 00:27:09;;;;;;;13.18;2.38;;;22.80;61.40;;;;;;5061534;28;20037;-58
2022/06/11 00:29:37;;;;;;;13.80;2.55;;;22.80;61.30;;;;;;5060780;28;20517;-58
2022/06/11 00:32:06;;;;;;;10.98;2.65;;;22.80;61.30;;;;;;5060705;28;20094;-57
2022/06/11 00:34:33;;;;;;;9.25;2.28;;;22.80;61.30;;;;;;5061589;28;20028;-58
2022/06/11 00:36:59;;;;;;;10.85;2.40;;;22.80;61.30;;;;;;5061073;28;20029;-58
2022/06/11 00:39:28;;;;;;;9.82;2.25;;;22.70;61.30;;;;;;5059305;28;20043;-58
2022/06/11 00:41:57;;;;;;;9.05;2.08;;;22.70;61.30;;;;;;5058831;28;20497;-58
2022/06/11 00:44:26;;;;;;;7.65;2.22;;;22.70;61.30;;;;;;5062045;28;20028;-58
2022/06/11 00:46:54;;;;;;;9.70;2.10;;;22.70;61.30;;;;;;5062055;28;20032;-58
2022/06/11 00:49:40;;;;;;;9.63;2.38;;;22.70;61.30;;;;;;5061177;28;20033;-58
2022/06/11 00:52:14;;;;;;;10.25;2.30;;;22.70;61.40;;;;;;5063711;28;20086;-58
2022/06/11 00:54:43;;;;;;;8.05;2.20;;;22.70;61.40;;;;;;5060688;28;20050;-58
2022/06/11 00:57:11;;;;;;;9.85;2.47;;;22.70;61.30;;;;;;5063762;28;20021;-58
2022/06/11 00:59:51;;;;;;;9.68;2.45;;;22.70;61.40;;;;;;5063660;28;20075;-58
2022/06/11 01:02:18;;;;;;;8.38;2.05;;;22.60;61.30;;;;;;5064116;28;20449;-58
2022/06/11 01:04:56;;;;;;;9.88;2.05;;;22.70;61.40;;;;;;5065708;28;20044;-58
2022/06/11 01:07:46;;;;;;;8.98;2.08;;;22.70;61.40;;;;;;5065028;28;20017;-58
2022/06/11 01:10:18;;;;;;;10.15;2.13;;;22.70;61.50;;;;;;5062558;28;20603;-58
2022/06/11 01:13:17;;;;;;;9.80;2.22;;;22.60;61.40;;;;;;5065978;28;20031;-57
2022/06/11 01:15:55;;;;;;;9.73;2.08;;;22.60;61.40;;;;;;5064495;28;20030;-58
2022/06/11 01:18:54;;;;;;;8.77;2.35;;;22.60;61.40;;;;;;5062382;28;20106;-58
2022/06/11 01:21:38;;;;;;;7.70;2.10;;;22.60;61.40;;;;;;5062810;28;20465;-58
2022/06/11 01:24:31;;;;;;;7.78;1.77;;;22.60;61.40;;;;;;5062321;28;20575;-58
2022/06/11 01:27:15;;;;;;;11.38;2.05;;;22.60;61.40;;;;;;5064374;28;20021;-57
2022/06/11 01:30:16;;;;;;;6.57;1.80;;;22.60;61.40;;;;;;5081504;28;20443;-58
2022/06/11 01:32:42;;;;;;;8.70;2.00;;;22.60;61.40;;;;;;5062559;28;20037;-58
2022/06/11 01:35:45;;;;;;;5.65;1.73;;;22.50;61.40;;;;;;5064572;28;20024;-58
2022/06/11 01:38:28;;;;;;;7.20;2.08;;;22.60;61.40;;;;;;5063379;28;20081;-58
2022/06/11 01:41:28;;;;;;;9.50;2.08;;;22.60;61.40;;;;;;5063732;28;20161;-58
2022/06/11 01:43:57;;;;;;;9.73;2.28;;;22.60;61.50;;;;;;5065152;28;20047;-58
2022/06/11 01:46:26;;;;;;;7.78;1.80;;;22.50;61.40;;;;;;5063737;28;20107;-58
2022/06/11 01:48:57;;;;;;;6.28;2.00;;;22.60;61.40;;;;;;5051750;28;20047;-57
2022/06/11 01:51:58;;;;;;;7.25;2.22;;;22.50;61.40;;;;;;5062296;28;20078;-58
2022/06/11 01:54:31;;;;;;;6.57;1.85;;;22.50;61.50;;;;;;5061194;28;20497;-58
2022/06/11 01:57:25;;;;;;;7.53;2.28;;;22.50;61.40;;;;;;5061584;28;20025;-58
2022/06/11 02:00:11;;;;;;;7.68;1.98;;;22.50;61.40;;;;;;5035083;28;20060;-58
2022/06/11 02:03:17;;;;;;;6.97;1.83;;;22.50;61.40;;;;;;5041055;28;20033;-58
2022/06/11 02:05:48;;;;;;;7.07;1.65;;;22.50;61.40;;;;;;5022166;28;20801;-58
2022/06/11 02:08:43;;;;;;;9.25;2.20;;;22.50;61.40;;;;;;5037830;28;20099;-58
2022/06/11 02:11:21;;;;;;;6.03;2.05;;;22.50;61.50;;;;;;5026711;28;20041;-58
2022/06/11 02:13:52;;;;;;;6.00;1.80;;;22.50;61.50;;;;;;5038597;28;20032;-58
2022/06/11 02:16:26;;;;;;;6.93;2.00;;;22.50;61.50;;;;;;5022272;28;20480;-58
2022/06/11 02:18:52;;;;;;;8.77;2.10;;;22.40;61.40;;;;;;5039204;28;20047;-58
2022/06/11 02:21:20;;;;;;;7.50;2.03;;;22.40;61.40;;;;;;5013013;28;20075;-58
2022/06/11 02:23:51;;;;;;;6.55;2.03;;;22.40;61.40;;;;;;5021673;28;20528;-58
2022/06/11 02:26:28;;;;;;;6.43;2.00;;;22.40;61.50;;;;;;5038906;28;20566;-58
2022/06/11 02:28:54;;;;;;;10.68;1.92;;;22.40;61.40;;;;;;5026945;28;20116;-58
2022/06/11 02:31:26;;;;;;;7.78;2.03;;;22.40;61.40;;;;;;5026040;28;20041;-58
2022/06/11 02:33:52;;;;;;;8.13;1.90;;;22.40;61.40;;;;;;5035014;28;20071;-58
2022/06/11 02:36:22;;;;;;;7.22;1.88;;;22.40;61.40;;;;;;5032011;28;20052;-58
2022/06/11 02:38:48;;;;;;;6.82;1.90;;;22.40;61.40;;;;;;5061596;28;20049;-58
2022/06/11 02:41:33;;;;;;;10.02;2.53;;;22.40;61.40;;;;;;5061282;28;20128;-58
2022/06/11 02:43:59;;;;;;;9.82;2.00;;;22.40;61.50;;;;;;5061986;28;20511;-58
2022/06/11 02:49:19;;;;;;;5.17;2.00;;;22.30;61.40;;;;;;5057345;28;20051;-58
2022/06/11 02:51:46;;;;;;;8.57;2.22;;;22.30;61.40;;;;;;5059157;28;20119;-57
2022/06/11 02:54:14;;;;;;;6.47;1.60;;;22.30;61.40;;;;;;5062530;28;20104;-58
2022/06/11 02:56:40;;;;;;;7.10;1.95;;;22.30;61.50;;;;;;5056328;28;20543;-58
2022/06/11 02:59:06;;;;;;;8.02;2.25;;;22.30;62.00;;;;;;5063316;28;20052;-58
2022/06/11 03:01:34;;;;;;;7.18;1.52;;;22.30;61.40;;;;;;5062157;28;20108;-58
2022/06/11 03:04:03;;;;;;;7.18;2.05;;;22.30;61.40;;;;;;5059275;28;20473;-57
2022/06/11 03:06:32;;;;;;;8.32;2.10;;;22.30;61.40;;;;;;5059589;28;20033;-58
2022/06/11 03:08:58;;;;;;;7.15;1.50;;;22.30;61.40;;;;;;5062450;28;20035;-58
2022/06/11 03:11:25;;;;;;;7.10;1.80;;;22.30;61.40;;;;;;5060249;28;20119;-58
2022/06/11 03:13:50;;;;;;;7.13;1.70;;;22.30;61.40;;;;;;5047130;28;20379;-58
2022/06/11 03:16:17;;;;;;;4.97;1.80;;;22.30;61.40;;;;;;5061750;28;20052;-58
2022/06/11 03:18:43;;;;;;;6.85;1.80;;;22.20;61.30;;;;;;5061126;28;20093;-57
2022/06/11 03:21:09;;;;;;;5.63;1.73;;;22.20;61.30;;;;;;5063376;28;20115;-58
2022/06/11 03:23:35;;;;;;;6.40;1.73;;;22.20;61.30;;;;;;5061175;28;20098;-58
2022/06/11 03:26:02;;;;;;;6.53;2.00;;;22.20;61.40;;;;;;5058536;28;20966;-58
2022/06/11 03:28:29;;;;;;;6.20;2.00;;;22.20;61.30;;;;;;5064710;28;20409;-58
2022/06/11 03:30:58;;;;;;;5.53;1.80;;;22.20;61.30;;;;;;5061162;28;20036;-58
2022/06/11 03:33:24;;;;;;;7.82;1.83;;;22.20;61.30;;;;;;5061272;28;20043;-58
2022/06/11 03:35:52;;;;;;;4.75;1.77;;;22.20;61.30;;;;;;5059701;28;21035;-58
2022/06/11 03:38:21;;;;;;;7.25;1.90;;;22.20;61.30;;;;;;5062939;28;20025;-58
2022/06/11 03:40:48;;;;;;;6.90;1.70;;;22.20;61.40;;;;;;5060208;28;21832;-58
2022/06/11 03:43:17;;;;;;;6.10;1.80;;;22.10;61.30;;;;;;5060656;28;20059;-58
2022/06/11 03:45:43;;;;;;;6.40;1.63;;;22.20;61.40;;;;;;5061493;28;20097;-58
2022/06/11 03:48:10;;;;;;;5.88;1.67;;;22.10;61.30;;;;;;5059377;28;20059;-58
2022/06/11 03:50:39;;;;;;;6.57;1.83;;;22.10;61.30;;;;;;5060882;28;20068;-58
2022/06/11 03:53:07;;;;;;;4.25;1.50;;;22.10;61.30;;;;;;5064061;28;20021;-58
2022/06/11 03:55:36;;;;;;;5.60;1.65;;;22.10;61.30;;;;;;5061654;28;20032;-58
2022/06/11 03:58:02;;;;;;;3.88;1.42;;;22.10;61.30;;;;;;5059284;28;20063;-58
2022/06/11 04:03:13;;;;;;;5.00;1.42;;;22.10;61.30;;;;;;5062125;28;20031;-58
2022/06/11 04:05:42;;;;;;;6.57;1.90;;;22.10;61.30;;;;;;5059682;28;20090;-58
2022/06/11 04:08:10;;;;;;;4.40;1.40;;;22.10;61.20;;;;;;5061624;28;20033;-58
2022/06/11 04:10:38;;;;;;;5.78;1.77;;;22.10;61.20;;;;;;5062025;28;20064;-58
2022/06/11 04:13:08;;;;;;;6.13;1.70;;;22.10;61.30;;;;;;5061513;28;20432;-58
2022/06/11 04:15:37;;;;;;;5.30;1.70;;;22.00;61.30;;;;;;5041898;28;20660;-58
2022/06/11 04:18:03;;;;;;;6.53;1.70;;;22.00;62.30;;;;;;5060848;28;20035;-58
2022/06/11 04:20:29;;;;;;;7.35;1.67;;;22.00;61.20;;;;;;5059840;28;20036;-58
2022/06/11 04:22:55;;;;;;;4.05;1.42;;;22.00;61.20;;;;;;5063471;28;20040;-58
2022/06/11 04:25:24;;;;;;;6.88;1.75;;;22.00;61.30;;;;;;5067001;28;20028;-58
2022/06/11 04:27:53;;;;;;;5.28;1.50;;;22.00;61.20;;;;;;5065068;28;20036;-58
2022/06/11 04:30:20;;;;;;;6.78;1.80;;;22.00;61.10;;;;;;5059818;28;20040;-58
2022/06/11 04:32:46;;;;;;;5.63;1.42;;;22.00;61.20;;;;;;5063535;28;20033;-58
2022/06/11 04:35:12;;;;;;;6.72;1.80;;;22.00;61.20;;;;;;5063989;28;20029;-58
2022/06/11 04:37:37;;;;;;;7.13;1.65;;;22.00;61.20;;;;;;5066033;28;20082;-58
2022/06/11 04:40:07;;;;;;;6.38;1.45;;;22.00;61.20;;;;;;5065732;28;20074;-58
2022/06/11 04:42:34;;;;;;;4.65;1.60;;;21.90;61.10;;;;;;5064825;28;20027;-58
2022/06/11 04:44:59;;;;;;;6.38;1.63;;;21.90;61.20;;;;;;5079832;28;20074;-58
2022/06/11 04:47:27;;;;;;;5.38;1.70;;;21.90;61.20;;;;;;5063060;28;20122;-58
2022/06/11 04:49:54;;;;;;;7.38;1.88;;;21.90;61.10;;;;;;5067361;28;20091;-58
2022/06/11 04:52:21;;;;;;;5.03;1.60;;;21.90;61.20;;;;;;5061211;28;20050;-58
2022/06/11 04:54:49;;;;;;;7.60;1.80;;;21.90;61.20;;;;;;5064306;28;20393;-57
2022/06/11 04:57:15;;;;;;;5.65;1.67;;;21.90;61.10;;;;;;5064581;28;20032;-58
2022/06/11 04:59:42;;;;;;;4.93;1.48;;;21.90;61.20;;;;;;5063452;28;20401;-58
2022/06/11 05:02:08;;;;;;;5.28;1.70;;;21.90;61.10;;;;;;5062555;28;20036;-58
2022/06/11 05:04:34;;;;;;;5.07;1.65;;;21.90;61.20;;;;;;5067097;28;20033;-57
2022/06/11 05:07:00;;;;;;;4.93;1.83;;;21.90;61.20;;;;;;5063780;28;20025;-58
2022/06/11 05:09:28;;;;;;;3.80;1.50;;;21.90;61.20;;;;;;5063002;28;20173;-58
2022/06/11 05:11:56;;;;;;;5.18;1.50;;;21.90;61.20;;;;;;5061265;28;20025;-58
2022/06/11 05:14:22;;;;;;;5.88;1.70;;;21.80;61.10;;;;;;5063306;28;20032;-58
2022/06/11 05:16:48;;;;;;;4.85;1.50;;;21.80;61.10;;;;;;5066132;28;20024;-58
2022/06/11 05:19:14;;;;;;;3.55;1.60;;;21.80;61.20;;;;;;5045667;28;20024;-58
2022/06/11 05:21:42;;;;;;;4.40;1.40;;;21.90;61.20;;;;;;5063549;28;20375;-58
2022/06/11 05:24:11;;;;;;;4.20;1.60;;;21.80;61.10;;;;;;5062018;28;20098;-58
2022/06/11 05:26:39;;;;;;;5.60;1.65;;;21.80;61.10;;;;;;5061633;28;20041;-57
2022/06/11 05:29:06;;;;;;;4.68;1.52;;;21.80;61.10;;;;;;5063680;28;20566;-58
2022/06/11 05:31:32;;;;;;;4.18;1.50;;;21.80;61.20;;;;;;5065410;28;20020;-58
2022/06/11 05:33:58;;;;;;;6.82;1.63;;;21.80;61.10;;;;;;5066980;28;20531;-58
2022/06/11 05:36:24;;;;;;;3.97;1.50;;;21.80;61.10;;;;;;5060963;28;20033;-58
2022/06/11 05:38:50;;;;;;;4.95;1.45;;;21.80;61.10;;;;;;5065011;28;20025;-58
2022/06/11 05:41:16;;;;;;;4.25;1.60;;;21.80;61.10;;;;;;5065684;28;20060;-58
2022/06/11 05:43:44;;;;;;;4.95;1.58;;;21.80;61.10;;;;;;5067014;28;20074;-58
2022/06/11 05:46:12;;;;;;;4.97;1.30;;;21.80;61.10;;;;;;5065857;28;20500;-58
2022/06/11 05:48:47;;;;;;;6.20;1.73;;;21.80;61.00;;;;;;5066693;28;20438;-58
2022/06/11 05:51:22;;;;;;;5.50;1.50;;;21.80;61.10;;;;;;5046441;28;20086;-58
2022/06/11 05:53:49;;;;;;;;;;;21.80;61.10;;;;;;5048722;28;20389;-61
2022/06/11 05:56:16;;;;;;;5.45;1.48;;;21.80;61.10;;;;;;5061135;28;19956;-58
2022/06/11 05:58:44;;;;;;;6.15;1.52;;;21.80;60.80;;;;;;5067012;28;20077;-58
2022/06/11 06:01:11;;;;;;;6.35;1.80;;;21.80;60.70;;;;;;5061016;28;20044;-58
2022/06/11 06:03:36;;;;;;;5.30;1.65;;;21.80;60.80;;;;;;5062869;28;20069;-58
2022/06/11 06:06:03;;;;;;;4.32;1.50;;;21.80;60.80;;;;;;5064761;28;20028;-58
2022/06/11 06:08:30;;;;;;;8.18;1.80;;;21.80;60.60;;;;;;5065072;28;20443;-58
2022/06/11 06:10:56;;;;;;;7.78;1.83;;;21.80;60.70;;;;;;5064993;28;20028;-58
2022/06/11 06:16:07;;;;;;;;;;;21.80;60.00;;;;;;5067953;28;20062;-57
2022/06/11 06:18:33;;;;;;;19.65;3.20;;;21.80;59.50;;;;;;5063423;28;19908;-58
2022/06/11 06:20:59;;;;;;;15.40;3.25;;;21.80;60.10;;;;;;5061132;28;20036;-57
2022/06/11 06:23:25;;;;;;;19.75;3.50;;;21.80;59.10;;;;;;5065351;28;20025;-58
2022/06/11 06:25:51;;;;;;;20.45;3.35;;;21.80;58.90;;;;;;5064734;28;20039;-59
2022/06/11 06:28:17;;;;;;;19.52;3.75;;;21.80;58.70;;;;;;5061086;28;20032;-58
2022/06/11 06:30:43;;;;;;;24.38;3.33;;;21.80;58.60;;;;;;5063067;28;20074;-58
2022/06/11 06:33:09;;;;;;;21.95;3.63;;;21.80;58.40;;;;;;5064221;28;20048;-58
2022/06/11 06:35:34;;;;;;;18.90;3.47;;;21.80;58.60;;;;;;5060487;28;20032;-58
2022/06/11 06:38:02;;;;;;;19.73;3.47;;;21.80;58.60;;;;;;5065227;28;20408;-58
2022/06/11 06:40:29;;;;;;;19.65;3.90;;;21.70;58.50;;;;;;5067196;28;20513;-58
2022/06/11 06:42:54;;;;;;;23.95;4.03;;;21.70;58.60;;;;;;5063386;28;20055;-57
2022/06/11 06:45:20;;;;;;;15.57;2.97;;;21.70;58.60;;;;;;5063433;28;20060;-57
2022/06/11 06:47:46;;;;;;;22.17;3.53;;;21.70;58.60;;;;;;5062649;28;20070;-57
2022/06/11 06:50:12;;;;;;;23.13;3.50;;;21.60;58.90;;;;;;5064284;28;20036;-58
2022/06/11 06:52:37;;;;;;;23.05;3.90;;;21.70;59.20;;;;;;5065393;28;20059;-57
2022/06/11 06:55:03;;;;;;;21.80;3.40;;;21.60;59.10;;;;;;5062820;28;20062;-58
2022/06/11 06:57:29;;;;;;;19.90;3.97;;;21.60;59.20;;;;;;5063814;28;20374;-57
2022/06/11 06:59:55;;;;;;;21.25;3.92;;;21.70;59.40;;;;;;5063806;28;20028;-58
2022/06/11 07:02:20;;;;;;;20.85;3.90;;;21.60;59.20;;;;;;5063543;28;20418;-58
2022/06/11 07:04:46;;;;;;;22.25;3.88;;;21.60;59.30;;;;;;5066626;28;20537;-58
2022/06/11 07:07:15;;;;;;;25.40;3.80;;;21.60;60.20;;;;;;5062346;28;20024;-58
2022/06/11 07:09:41;;;;;;;25.65;4.15;;;21.70;59.20;;;;;;5062856;28;20039;-57
2022/06/11 07:12:07;;;;;;;32.72;4.75;;;21.70;59.40;;;;;;5065582;28;20115;-57
2022/06/11 07:14:32;;;;;;;22.13;4.15;;;21.70;59.40;;;;;;5064669;28;20485;-57
2022/06/11 07:16:59;;;;;;;26.98;4.18;;;21.70;59.60;;;;;;5064289;28;20028;-57
2022/06/11 07:19:28;;;;;;;26.58;4.30;;;21.60;59.50;;;;;;5063560;28;20556;-58
2022/06/11 07:21:56;;;;;;;23.55;3.72;;;21.60;59.50;;;;;;5063757;28;20029;-57
2022/06/11 07:24:24;;;;;;;26.00;3.85;;;21.60;59.70;;;;;;5061123;28;20020;-57
2022/06/11 07:26:52;;;;;;;24.17;4.90;;;21.60;59.80;;;;;;5064485;28;20027;-58
2022/06/11 07:29:23;;;;;;;20.80;3.85;;;21.60;59.80;;;;;;5059310;28;20016;-58
2022/06/11 07:31:49;;;;;;;22.23;4.30;;;21.60;59.80;;;;;;5064730;28;20101;-58
2022/06/11 07:34:14;;;;;;;27.65;4.20;;;21.60;59.70;;;;;;5062399;28;20393;-57
2022/06/11 07:36:40;;;;;;;25.92;4.38;;;21.60;59.40;;;;;;5064065;28;20028;-57
2022/06/11 07:39:06;;;;;;;24.92;4.03;;;21.60;59.60;;;;;;5060102;28;20032;-57
2022/06/11 07:41:32;;;;;;;22.38;4.03;;;21.60;59.70;;;;;;5061947;28;20040;-59
2022/06/11 07:43:57;;;;;;;26.30;4.65;;;21.60;59.70;;;;;;5065398;28;20028;-58
2022/06/11 07:46:23;;;;;;;29.95;5.30;;;21.60;60.00;;;;;;5062927;28;20067;-59
2022/06/11 07:48:49;;;;;;;24.65;4.38;;;21.60;59.90;;;;;;5062602;28;20551;-59
2022/06/11 07:51:18;;;;;;;30.48;5.65;;;21.60;59.50;;;;;;5066016;28;20526;-59
2022/06/11 07:53:45;;;;;;;27.17;4.72;;;21.60;60.00;;;;;;5062656;28;20036;-59
2022/06/11 07:56:10;;;;;;;25.77;4.57;;;21.60;60.10;;;;;;5059940;28;20032;-59
2022/06/11 07:58:37;;;;;;;30.45;4.70;;;21.60;60.00;;;;;;5064873;28;20032;-59
2022/06/11 08:01:02;;;;;;;21.40;4.28;;;21.60;59.80;;;;;;5062346;28;20048;-58
2022/06/11 08:03:28;;;;;;;27.75;4.82;;;21.50;59.00;;;;;;5061564;28;20029;-58
2022/06/11 08:05:54;;;;;;;26.67;5.53;;;21.50;59.00;;;;;;5063222;28;20032;-58
2022/06/11 08:08:20;;;;;;;33.22;4.93;;;21.50;59.40;;;;;;5062981;28;20079;-58
2022/06/11 08:10:46;;;;;;;29.50;4.90;;;21.40;59.30;;;;;;5063110;28;20028;-56
2022/06/11 08:13:12;;;;;;;27.92;3.97;;;21.40;58.70;;;;;;5060091;28;20031;-57
2022/06/11 08:15:38;;;;;;;32.08;4.45;;;21.40;58.30;;;;;;5061049;28;20079;-57
2022/06/11 08:18:04;;;;;;;20.13;3.40;;;21.40;58.10;;;;;;5061970;28;20044;-57
2022/06/11 08:20:31;;;;;;;27.95;4.07;;;21.40;57.80;;;;;;5062525;28;20060;-57
2022/06/11 08:22:57;;;;;;;23.35;3.42;;;21.40;57.20;;;;;;5062316;28;20025;-57
2022/06/11 08:25:23;;;;;;;21.98;3.60;;;21.40;57.30;;;;;;5060657;28;20054;-57
2022/06/11 08:27:49;;;;;;;26.80;3.85;;;21.40;57.50;;;;;;5060574;28;20020;-57
2022/06/11 08:30:16;;;;;;;22.05;3.47;;;21.40;56.40;;;;;;5063366;28;20115;-59
2022/06/11 08:32:41;;;;;;;22.88;4.22;;;21.30;56.90;;;;;;5058694;28;20020;-59
2022/06/11 08:35:08;;;;;;;19.30;3.90;;;21.30;57.20;;;;;;5064185;28;20425;-59
2022/06/11 08:37:34;;;;;;;26.40;3.83;;;21.30;57.50;;;;;;5063251;28;20082;-58
2022/06/11 08:39:59;;;;;;;20.58;3.75;;;21.30;56.60;;;;;;5044236;28;20086;-58
2022/06/11 08:42:31;;;;;;;23.45;3.88;;;21.30;56.70;;;;;;5063998;28;20428;-58
2022/06/11 08:44:58;;;;;;;19.83;3.70;;;21.30;57.10;;;;;;5059262;28;20032;-58
2022/06/11 08:47:27;;;;;;;18.20;3.40;;;21.40;58.70;;;;;;5061814;28;20031;-57
2022/06/11 08:49:52;;;;;;;18.33;3.25;;;21.40;59.00;;;;;;5064983;28;20067;-58
2022/06/11 08:52:23;;;;;;;17.73;3.47;;;21.40;59.00;;;;;;5060921;28;20044;-58
2022/06/11 08:54:49;;;;;;;19.73;3.80;;;21.50;59.00;;;;;;5058023;28;20168;-57
2022/06/11 08:57:43;;;;;;;18.05;3.38;;;21.50;58.80;;;;;;5062829;28;20127;-58
2022/06/11 09:00:16;;;;;;;18.23;3.50;;;21.50;58.60;;;;;;5060194;28;20039;-58
2022/06/11 09:02:45;;;;;;;16.02;3.08;;;21.60;58.70;;;;;;5058739;28;20021;-57
2022/06/11 09:05:25;;;;;;;18.02;3.15;;;21.70;58.70;;;;;;5062448;28;20497;-58
2022/06/11 09:07:57;;;;;;;20.23;3.65;;;21.70;58.70;;;;;;5060543;28;20040;-58
2022/06/11 09:10:47;;;;;;;16.38;3.55;;;21.70;58.70;;;;;;5060561;28;20048;-58
2022/06/11 09:13:31;;;;;;;18.42;3.63;;;21.70;58.70;;;;;;5065308;28;20032;-58
2022/06/11 09:16:16;;;;;;;19.50;3.17;;;21.70;58.70;;;;;;5064398;28;20437;-58
2022/06/11 09:18:42;;;;;;;15.93;3.33;;;21.70;58.80;;;;;;5067207;28;20024;-58
2022/06/11 09:21:10;;;;;;;14.32;3.10;;;21.70;58.80;;;;;;5065091;28;20036;-58
2022/06/11 09:23:58;;;;;;;17.40;3.20;;;21.70;58.80;;;;;;5065363;28;20033;-58
2022/06/11 09:26:23;;;;;;;16.13;3.50;;;21.80;58.80;;;;;;5064316;28;20157;-58
2022/06/11 09:29:29;;;;;;;19.35;3.90;;;21.80;58.80;;;;;;5066379;28;20047;-58
2022/06/11 09:32:11;;;;;;;17.25;3.53;;;21.80;58.80;;;;;;5066375;28;20044;-58
2022/06/11 09:34:44;;;;;;;15.45;2.95;;;21.80;58.90;;;;;;5065660;28;20036;-58
2022/06/11 09:37:35;;;;;;;15.73;3.35;;;21.90;58.80;;;;;;5066279;28;20025;-58
2022/06/11 09:40:23;;;;;;;17.10;3.33;;;21.90;58.80;;;;;;5039178;28;20052;-57
2022/06/11 09:42:48;;;;;;;18.55;3.22;;;21.90;58.70;;;;;;5040548;28;20040;-58
2022/06/11 09:45:20;;;;;;;15.00;3.10;;;21.90;58.70;;;;;;5041222;28;20041;-58
2022/06/11 09:47:56;;;;;;;15.98;3.00;;;21.90;58.70;;;;;;5034264;28;20441;-58
2022/06/11 09:50:30;;;;;;;15.70;3.15;;;21.90;58.90;;;;;;5025090;28;20136;-58
2022/06/11 09:53:04;;;;;;;18.38;3.10;;;21.90;58.90;;;;;;5031004;28;20067;-58
2022/06/11 09:55:35;;;;;;;13.20;2.78;;;21.90;58.70;;;;;;5038243;28;20041;-58
2022/06/11 09:58:11;;;;;;;22.70;3.60;;;21.90;58.60;;;;;;5040270;28;20079;-58
2022/06/11 10:00:48;;;;;;;16.45;3.60;;;21.90;58.00;;;;;;5023789;28;20045;-59
2022/06/11 10:03:37;;;;;;;13.93;3.10;;;21.90;58.20;;;;;;5025649;28;20049;-58
2022/06/11 10:06:14;;;;;;;18.77;3.25;;;21.90;58.00;;;;;;5039778;28;20039;-58
2022/06/11 10:08:49;;;;;;;16.00;3.10;;;21.90;56.90;;;;;;5024564;28;20055;-58
2022/06/11 10:11:30;;;;;;;22.35;4.18;;;21.90;58.10;;;;;;5043836;28;20462;-58
2022/06/11 10:14:29;;;;;;;27.98;4.07;;;21.90;57.40;;;;;;5045510;28;20036;-58
2022/06/11 10:17:12;;;;;;;25.92;3.70;;;21.90;57.10;;;;;;5042511;28;20033;-58
2022/06/11 10:19:51;;;;;;;19.58;3.70;;;21.80;57.20;;;;;;5065738;28;20128;-58
2022/06/11 10:22:26;;;;;;;18.25;3.35;;;21.90;57.40;;;;;;5063892;28;20048;-58
2022/06/11 10:24:59;;;;;;;26.55;4.05;;;21.90;57.70;;;;;;5060490;28;20020;-58
2022/06/11 10:27:25;;;;;;;25.40;4.80;;;21.90;57.20;;;;;;5062211;28;20024;-58
2022/06/11 10:29:52;;;;;;;20.25;4.30;;;21.90;58.10;;;;;;5059085;28;20551;-58
2022/06/11 10:32:26;;;;;;;26.98;4.07;;;21.90;58.30;;;;;;5061872;28;20090;-58
2022/06/11 10:35:20;;;;;;;23.63;3.93;;;21.90;57.60;;;;;;5064377;28;20020;-58
2022/06/11 10:37:58;;;;;;;23.60;3.35;;;21.90;58.50;;;;;;5063951;28;20386;-58
2022/06/11 10:40:30;;;;;;;26.88;3.92;;;21.80;57.70;;;;;;5062573;28;20094;-58
2022/06/11 10:43:34;;;;;;;25.58;3.88;;;21.80;57.30;;;;;;5063196;28;20020;-58
2022/06/11 10:46:00;;;;;;;21.65;3.70;;;21.80;57.60;;;;;;5061342;28;20071;-58
2022/06/11 10:48:29;;;;;;;30.45;4.47;;;21.70;57.10;;;;;;5056684;28;20063;-58
2022/06/11 10:50:54;;;;;;;24.95;3.78;;;21.80;57.30;;;;;;5062759;28;20068;-58
2022/06/11 10:53:26;;;;;;;22.00;3.50;;;21.80;57.00;;;;;;5062342;28;20472;-58
2022/06/11 10:56:02;;;;;;;22.95;3.88;;;21.80;57.40;;;;;;5064750;28;20064;-58
2022/06/11 10:58:35;;;;;;;22.70;3.97;;;21.80;56.90;;;;;;5062799;28;20031;-58
2022/06/11 11:01:15;;;;;;;27.05;3.92;;;21.90;57.10;;;;;;5061685;28;20060;-58
2022/06/11 11:03:52;;;;;;;19.55;3.45;;;21.90;56.80;;;;;;5062629;28;20021;-58
2022/06/11 11:06:25;;;;;;;20.98;3.83;;;21.90;56.30;;;;;;5061491;28;20745;-58
2022/06/11 11:09:02;;;;;;;23.45;3.80;;;21.90;56.40;;;;;;5062821;28;20527;-60
2022/06/11 11:11:38;;;;;;;19.83;3.50;;;21.90;56.10;;;;;;5045341;28;20032;-58
2022/06/11 11:14:27;;;;;;;22.27;3.80;;;21.90;56.90;;;;;;5046322;28;20028;-58
2022/06/11 11:16:53;;;;;;;19.33;3.70;;;21.90;56.30;;;;;;5064798;28;20024;-58
2022/06/11 11:19:32;;;;;;;23.20;3.60;;;22.00;56.80;;;;;;5063027;28;20032;-58
2022/06/11 11:22:04;;;;;;;20.80;3.53;;;22.00;56.60;;;;;;5060597;28;20036;-58
2022/06/11 11:24:38;;;;;;;25.27;4.40;;;22.00;56.40;;;;;;5061399;28;20600;-58
2022/06/11 11:27:21;;;;;;;23.40;3.25;;;22.00;56.50;;;;;;5061726;28;20507;-58
2022/06/11 11:29:54;;;;;;;25.08;3.67;;;22.00;55.90;;;;;;5060593;28;20021;-58
2022/06/11 11:32:35;;;;;;;18.45;3.35;;;22.00;57.20;;;;;;5060859;28;20119;-58
2022/06/11 11:35:16;;;;;;;19.42;3.65;;;22.00;56.40;;;;;;5060959;28;20033;-58
2022/06/11 11:37:41;;;;;;;24.88;4.05;;;22.10;56.30;;;;;;5061671;28;20032;-58
2022/06/11 11:40:26;;;;;;;22.17;4.13;;;22.10;56.60;;;;;;5060311;28;20040;-58
2022/06/11 11:42:56;;;;;;;21.55;3.20;;;22.10;56.90;;;;;;5059177;28;20036;-58
2022/06/11 11:45:24;;;;;;;24.58;3.90;;;22.10;56.80;;;;;;5057856;28;20443;-58
2022/06/11 11:47:51;;;;;;;25.77;4.03;;;22.10;56.80;;;;;;5060678;28;20422;-58
2022/06/11 11:50:22;;;;;;;21.80;3.40;;;22.10;56.70;;;;;;5062001;28;20056;-58
2022/06/11 11:52:52;;;;;;;19.35;3.10;;;22.10;56.80;;;;;;5062495;28;20093;-58
2022/06/11 11:55:20;;;;;;;21.52;3.38;;;22.20;57.00;;;;;;5060748;28;20180;-58
2022/06/11 11:58:05;;;;;;;27.23;3.90;;;22.10;57.10;;;;;;5060487;28;20056;-58
2022/06/11 12:00:40;;;;;;;27.48;4.18;;;22.20;57.30;;;;;;5061486;28;20044;-59
2022/06/11 12:03:06;;;;;;;25.25;3.42;;;22.30;57.20;;;;;;5061231;28;20033;-58
2022/06/11 12:05:47;;;;;;;18.52;3.40;;;22.30;57.30;;;;;;5059790;28;20032;-58
2022/06/11 12:08:21;;;;;;;20.63;3.95;;;22.30;57.20;;;;;;5060823;28;20063;-58
2022/06/11 12:10:48;;;;;;;19.55;3.47;;;22.40;57.10;;;;;;5063627;28;20059;-58
2022/06/11 12:13:24;;;;;;;26.67;4.10;;;22.40;57.30;;;;;;5062469;28;20701;-58
2022/06/11 12:15:57;;;;;;;20.23;3.40;;;22.50;57.30;;;;;;5061694;28;20134;-58
2022/06/11 12:18:42;;;;;;;18.20;3.25;;;22.50;57.30;;;;;;5060560;28;20035;-58
2022/06/11 12:21:14;;;;;;;23.00;4.20;;;22.50;57.30;;;;;;5045998;28;20554;-58
2022/06/11 12:24:07;;;;;;;20.17;3.03;;;22.50;57.30;;;;;;5062374;28;20431;-58
2022/06/11 12:26:36;;;;;;;18.55;3.33;;;22.60;57.40;;;;;;5057923;28;20398;-58
2022/06/11 12:29:06;;;;;;;18.60;3.45;;;22.60;57.30;;;;;;5063032;28;20452;-58
2022/06/11 12:31:31;;;;;;;16.75;2.78;;;22.60;57.30;;;;;;5062497;28;20017;-58
2022/06/11 12:33:57;;;;;;;21.33;3.75;;;22.60;57.30;;;;;;5065481;28;20085;-58
2022/06/11 12:36:48;;;;;;;15.10;3.13;;;22.70;57.30;;;;;;5061293;28;20078;-58
2022/06/11 12:39:27;;;;;;;24.52;4.03;;;22.70;57.30;;;;;;5059946;28;20098;-58
2022/06/11 12:41:55;;;;;;;21.55;3.88;;;22.70;57.30;;;;;;5063011;28;20119;-58
2022/06/11 12:44:43;;;;;;;21.90;3.25;;;22.70;57.20;;;;;;5064313;28;20555;-58
2022/06/11 12:47:47;;;;;;;19.42;3.55;;;22.70;57.10;;;;;;5067178;28;20020;-58
2022/06/11 12:50:50;;;;;;;20.75;3.70;;;22.80;57.20;;;;;;5063374;28;20048;-58
2022/06/11 12:53:36;;;;;;;20.85;3.70;;;22.80;58.30;;;;;;5063833;28;20027;-58
2022/06/11 12:56:36;;;;;;;18.67;3.60;;;22.80;57.10;;;;;;5051230;28;20028;-58
2022/06/11 12:59:02;;;;;;;15.95;3.22;;;22.80;57.00;;;;;;5063567;28;20033;-58
2022/06/11 13:01:32;;;;;;;15.50;2.97;;;22.80;57.10;;;;;;5067778;28;20047;-58
2022/06/11 13:04:21;;;;;;;15.95;3.42;;;22.80;57.00;;;;;;5064383;28;20063;-57
2022/06/11 13:07:08;;;;;;;16.77;3.28;;;22.90;57.00;;;;;;5054429;28;20060;-58
2022/06/11 13:09:37;;;;;;;20.70;3.83;;;22.90;56.90;;;;;;5065390;28;20401;-58
2022/06/11 13:12:02;;;;;;;19.10;3.17;;;22.80;56.70;;;;;;5065064;28;20626;-57